createdAt,value
2022-09-28T08:16:53.135Z,9.08
2022-09-28T08:17:58.006Z,9.19
2022-09-28T08:23:49.717Z,9.23
2022-09-28T08:27:23.651Z,9.25
2022-09-28T08:28:25.454Z,9.31
2022-09-28T08:32:01.976Z,9.62
2022-09-28T08:45:04.558Z,9.50
2022-09-28T10:45:18.780Z,12.30
2022-09-28T11:17:51.935Z,11.98
2022-09-28T11:20:27.886Z,12.83
2022-09-28T11:21:40.214Z,14.11
2022-09-28T11:22:42.276Z,14.53
2022-09-28T11:24:06.504Z,13.95
2022-09-28T11:25:16.862Z,14.63
2022-09-28T11:26:19.015Z,14.81
2022-09-28T11:27:25.529Z,14.75
2022-09-28T11:28:32.951Z,14.51
2022-09-28T11:29:41.869Z,14.62
2022-09-28T11:30:51.317Z,14.53
2022-09-28T11:31:52.971Z,14.29
2022-09-28T11:33:00.897Z,13.97
2022-09-28T11:34:31.454Z,13.45
2022-09-28T11:36:06.481Z,13.38
2022-09-28T11:37:38.565Z,13.75
2022-09-28T12:06:59.001Z,12.35
2022-09-28T12:08:08.733Z,12.67
2022-09-28T12:09:22.959Z,12.56
2022-09-28T12:10:58.001Z,12.93
2022-09-28T12:12:07.544Z,12.95
2022-09-28T12:13:17.387Z,13.46
2022-09-28T12:20:05.067Z,13.64
2022-09-28T12:21:14.972Z,13.61
2022-09-28T12:22:23.156Z,13.30
2022-09-28T12:23:33.574Z,13.34
2022-09-28T12:24:48.927Z,13.09
2022-09-28T12:26:02.171Z,12.97
2022-09-28T12:27:14.406Z,12.99
2022-09-28T12:28:30.414Z,12.95
2022-09-28T12:30:04.027Z,13.23
2022-09-28T12:31:20.536Z,13.28
2022-09-28T12:32:39.288Z,13.11
2022-09-28T12:33:45.159Z,12.95
2022-09-28T12:34:46.754Z,13.12
2022-09-28T12:36:20.824Z,12.92
2022-09-28T12:37:41.919Z,12.92
2022-09-28T12:50:42.825Z,12.40
2022-09-28T12:51:55.559Z,12.48
2022-09-28T12:53:20.018Z,12.38
2022-09-28T12:54:27.325Z,12.40
2022-09-28T12:55:56.650Z,12.33
2022-09-28T12:57:06.893Z,12.17
2022-09-28T12:58:38.340Z,12.17
2022-09-28T12:59:52.977Z,12.32
2022-09-28T13:00:57.497Z,12.38
2022-09-28T13:02:09.705Z,12.51
2022-09-28T13:03:41.061Z,13.03
2022-09-28T13:05:18.987Z,13.25
2022-09-28T13:06:50.528Z,13.13
2022-09-28T13:08:10.432Z,13.22
2022-09-28T13:09:16.729Z,13.55
2022-09-28T13:10:26.308Z,13.84
2022-09-28T13:11:32.109Z,13.95
2022-09-28T13:12:39.801Z,14.26
2022-09-28T13:13:54.328Z,14.28
2022-09-28T13:15:01.439Z,13.81
2022-09-28T13:16:12.659Z,13.42
2022-09-28T13:17:42.460Z,13.28
2022-09-28T13:18:56.202Z,13.41
2022-09-28T13:20:03.872Z,13.13
2022-09-28T13:21:14.086Z,13.16
2022-09-28T13:22:39.940Z,13.54
2022-09-28T13:23:48.441Z,13.74
2022-09-28T13:24:52.956Z,13.87
2022-09-28T13:25:59.870Z,13.87
2022-09-28T13:27:13.514Z,13.67
2022-09-28T13:28:18.501Z,13.22
2022-09-28T13:29:21.126Z,13.73
2022-09-28T13:30:22.930Z,14.02
2022-09-28T13:37:04.548Z,14.97
2022-09-28T13:38:17.839Z,14.49
2022-09-28T13:39:59.203Z,14.32
2022-09-28T13:41:03.790Z,14.09
2022-09-28T13:42:08.528Z,13.91
2022-09-28T13:50:14.211Z,13.40
2022-09-28T13:51:42.180Z,13.59
2022-09-28T13:53:05.035Z,13.14
2022-09-28T13:54:22.300Z,12.87
2022-09-28T13:56:00.638Z,12.85
2022-09-28T13:57:13.697Z,13.13
2022-09-28T13:58:25.151Z,13.30
2022-09-28T13:59:28.757Z,13.24
2022-09-28T14:00:44.279Z,13.21
2022-09-28T14:01:55.725Z,13.55
2022-09-28T14:03:10.119Z,13.57
2022-09-28T14:04:11.613Z,13.50
2022-09-28T14:05:31.895Z,13.27
2022-09-28T14:06:33.637Z,13.20
2022-09-28T14:13:08.040Z,13.17
2022-09-28T14:14:13.866Z,13.23
2022-09-28T14:15:37.397Z,13.64
2022-09-28T14:16:40.957Z,13.38
2022-09-28T14:17:54.137Z,13.49
2022-09-28T14:18:58.415Z,13.68
2022-09-28T14:20:08.766Z,13.80
2022-09-28T14:21:27.645Z,13.72
2022-09-28T14:22:47.100Z,13.73
2022-09-28T14:23:59.755Z,13.79
2022-09-28T14:25:20.903Z,13.97
2022-09-28T14:26:41.978Z,13.76
2022-09-28T14:28:20.594Z,14.17
2022-09-28T14:29:31.342Z,14.04
2022-09-28T14:30:52.391Z,14.11
2022-09-28T14:31:55.322Z,14.33
2022-09-28T14:32:58.939Z,14.29
2022-09-28T14:34:03.313Z,14.07
2022-09-28T14:35:08.017Z,13.91
2022-09-28T14:37:01.562Z,13.82
2022-09-28T14:38:34.809Z,13.66
2022-09-28T14:39:56.801Z,14.02
2022-09-28T14:41:11.491Z,13.81
2022-09-28T14:42:16.358Z,13.52
2022-09-28T14:43:45.736Z,13.39
2022-09-28T14:45:06.691Z,13.32
2022-09-28T14:46:19.599Z,12.66
2022-09-28T14:48:12.535Z,12.78
2022-09-28T14:49:17.458Z,12.56
2022-09-28T14:50:27.605Z,12.58
2022-09-28T14:51:35.433Z,12.62
2022-09-28T14:52:47.084Z,12.72
2022-09-28T14:53:54.551Z,12.76
2022-09-28T14:54:57.317Z,12.66
2022-09-28T14:56:00.562Z,12.60
2022-09-28T14:57:15.445Z,12.95
2022-09-28T14:58:26.709Z,13.13
2022-09-28T14:59:31.065Z,12.93
2022-09-28T15:00:32.965Z,13.09
2022-09-28T15:01:36.057Z,13.21
2022-09-28T15:02:38.849Z,13.13
2022-09-28T15:03:43.352Z,13.20
2022-09-28T15:05:00.047Z,13.32
2022-09-28T15:06:01.675Z,13.16
2022-09-28T15:07:03.198Z,13.36
2022-09-28T15:08:07.439Z,13.32
2022-09-28T15:09:36.143Z,13.52
2022-09-28T15:10:42.571Z,13.61
2022-09-28T15:11:48.813Z,13.50
2022-09-28T15:12:52.725Z,12.95
2022-09-28T15:14:10.505Z,13.32
2022-09-28T15:15:40.080Z,13.43
2022-09-28T15:16:41.481Z,13.30
2022-09-28T15:17:52.973Z,13.28
2022-09-28T15:19:06.425Z,13.59
2022-09-28T15:20:21.128Z,13.64
2022-09-28T15:21:23.670Z,13.46
2022-09-28T15:22:25.080Z,13.57
2022-09-28T15:23:41.548Z,13.64
2022-09-28T15:30:07.958Z,13.23
2022-09-28T15:32:32.383Z,12.89
2022-09-28T15:34:51.937Z,13.07
2022-09-28T15:37:39.714Z,13.44
2022-09-28T15:38:42.812Z,13.58
